sensor_id;sensor_type;location;lat;lon;timestamp;P1;durP1;ratioP1;P2;durP2;ratioP2
10687;SDS011;5392;42.688;23.298;2022-11-06T00:01:07;38.55;;;26.45;;
10687;SDS011;5392;42.688;23.298;2022-11-06T00:03:35;38.78;;;27.05;;
10687;SDS011;5392;42.688;23.298;2022-11-06T00:06:09;39.42;;;27.40;;
10687;SDS011;5392;42.688;23.298;2022-11-06T00:08:57;40.08;;;27.50;;
10687;SDS011;5392;42.688;23.298;2022-11-06T00:11:24;41.55;;;27.63;;
10687;SDS011;5392;42.688;23.298;2022-11-06T00:13:52;36.03;;;26.83;;
10687;SDS011;5392;42.688;23.298;2022-11-06T00:16:19;36.40;;;25.35;;
10687;SDS011;5392;42.688;23.298;2022-11-06T00:18:46;44.92;;;26.30;;
10687;SDS011;5392;42.688;23.298;2022-11-06T00:21:14;36.95;;;26.85;;
10687;SDS011;5392;42.688;23.298;2022-11-06T00:23:43;42.67;;;29.05;;
10687;SDS011;5392;42.688;23.298;2022-11-06T00:26:11;38.85;;;27.95;;
10687;SDS011;5392;42.688;23.298;2022-11-06T00:28:43;39.28;;;28.98;;
10687;SDS011;5392;42.688;23.298;2022-11-06T00:31:11;35.95;;;26.73;;
10687;SDS011;5392;42.688;23.298;2022-11-06T00:33:39;38.17;;;27.60;;
10687;SDS011;5392;42.688;23.298;2022-11-06T00:36:08;36.75;;;27.30;;
10687;SDS011;5392;42.688;23.298;2022-11-06T00:38:38;37.15;;;26.15;;
10687;SDS011;5392;42.688;23.298;2022-11-06T00:41:06;34.13;;;22.58;;
10687;SDS011;5392;42.688;23.298;2022-11-06T00:43:35;29.45;;;22.08;;
10687;SDS011;5392;42.688;23.298;2022-11-06T00:46:02;28.17;;;22.17;;
10687;SDS011;5392;42.688;23.298;2022-11-06T00:48:31;31.65;;;23.20;;
10687;SDS011;5392;42.688;23.298;2022-11-06T00:51:02;31.60;;;22.83;;
10687;SDS011;5392;42.688;23.298;2022-11-06T00:53:30;31.30;;;22.98;;
10687;SDS011;5392;42.688;23.298;2022-11-06T00:56:07;30.38;;;22.17;;
10687;SDS011;5392;42.688;23.298;2022-11-06T00:58:35;26.90;;;22.38;;
10687;SDS011;5392;42.688;23.298;2022-11-06T01:01:06;36.30;;;24.27;;
10687;SDS011;5392;42.688;23.298;2022-11-06T01:03:42;33.78;;;25.00;;
10687;SDS011;5392;42.688;23.298;2022-11-06T01:06:20;33.53;;;24.42;;
10687;SDS011;5392;42.688;23.298;2022-11-06T01:08:48;32.50;;;23.60;;
10687;SDS011;5392;42.688;23.298;2022-11-06T01:13:44;37.33;;;25.73;;
10687;SDS011;5392;42.688;23.298;2022-11-06T01:16:14;34.63;;;24.38;;
10687;SDS011;5392;42.688;23.298;2022-11-06T01:18:41;37.80;;;25.70;;
10687;SDS011;5392;42.688;23.298;2022-11-06T01:21:19;36.47;;;25.15;;
10687;SDS011;5392;42.688;23.298;2022-11-06T01:23:52;31.30;;;23.98;;
10687;SDS011;5392;42.688;23.298;2022-11-06T01:26:20;33.08;;;24.08;;
10687;SDS011;5392;42.688;23.298;2022-11-06T01:29:03;36.47;;;24.73;;
10687;SDS011;5392;42.688;23.298;2022-11-06T01:31:31;36.95;;;24.63;;
10687;SDS011;5392;42.688;23.298;2022-11-06T01:33:59;34.08;;;23.73;;
10687;SDS011;5392;42.688;23.298;2022-11-06T01:36:27;33.22;;;22.33;;
10687;SDS011;5392;42.688;23.298;2022-11-06T01:38:56;33.25;;;22.23;;
10687;SDS011;5392;42.688;23.298;2022-11-06T01:41:26;30.08;;;22.13;;
10687;SDS011;5392;42.688;23.298;2022-11-06T01:44:02;33.58;;;23.27;;
10687;SDS011;5392;42.688;23.298;2022-11-06T01:46:34;33.42;;;21.77;;
10687;SDS011;5392;42.688;23.298;2022-11-06T01:49:06;31.90;;;21.27;;
10687;SDS011;5392;42.688;23.298;2022-11-06T01:51:47;28.58;;;20.50;;
10687;SDS011;5392;42.688;23.298;2022-11-06T01:54:17;32.92;;;22.77;;
10687;SDS011;5392;42.688;23.298;2022-11-06T01:57:05;35.80;;;22.15;;
10687;SDS011;5392;42.688;23.298;2022-11-06T01:59:33;29.77;;;21.23;;
10687;SDS011;5392;42.688;23.298;2022-11-06T02:02:02;33.08;;;20.50;;
10687;SDS011;5392;42.688;23.298;2022-11-06T02:04:33;26.40;;;15.10;;
10687;SDS011;5392;42.688;23.298;2022-11-06T02:07:02;17.80;;;12.40;;
10687;SDS011;5392;42.688;23.298;2022-11-06T02:09:30;14.65;;;10.55;;
10687;SDS011;5392;42.688;23.298;2022-11-06T02:12:07;16.75;;;9.35;;
10687;SDS011;5392;42.688;23.298;2022-11-06T02:14:43;10.25;;;8.20;;
10687;SDS011;5392;42.688;23.298;2022-11-06T02:28:32;9.77;;;5.95;;
10687;SDS011;5392;42.688;23.298;2022-11-06T02:31:04;9.75;;;4.22;;
10687;SDS011;5392;42.688;23.298;2022-11-06T02:33:37;6.70;;;5.00;;
10687;SDS011;5392;42.688;23.298;2022-11-06T02:36:13;7.95;;;5.53;;
10687;SDS011;5392;42.688;23.298;2022-11-06T02:39:06;9.77;;;5.60;;
10687;SDS011;5392;42.688;23.298;2022-11-06T02:41:35;6.63;;;4.40;;
10687;SDS011;5392;42.688;23.298;2022-11-06T02:44:06;8.95;;;4.90;;
10687;SDS011;5392;42.688;23.298;2022-11-06T02:46:55;6.75;;;4.88;;
10687;SDS011;5392;42.688;23.298;2022-11-06T02:49:46;6.72;;;5.38;;
10687;SDS011;5392;42.688;23.298;2022-11-06T02:55:37;9.80;;;5.05;;
10687;SDS011;5392;42.688;23.298;2022-11-06T02:58:11;7.95;;;3.63;;
10687;SDS011;5392;42.688;23.298;2022-11-06T03:00:43;8.23;;;3.65;;
10687;SDS011;5392;42.688;23.298;2022-11-06T03:03:20;9.57;;;4.03;;
10687;SDS011;5392;42.688;23.298;2022-11-06T03:05:52;5.85;;;2.58;;
10687;SDS011;5392;42.688;23.298;2022-11-06T03:08:25;3.90;;;1.02;;
10687;SDS011;5392;42.688;23.298;2022-11-06T03:11:14;4.35;;;2.30;;
10687;SDS011;5392;42.688;23.298;2022-11-06T03:19:56;7.50;;;3.80;;
10687;SDS011;5392;42.688;23.298;2022-11-06T03:27:50;10.07;;;6.47;;
10687;SDS011;5392;42.688;23.298;2022-11-06T03:30:23;11.13;;;6.85;;
10687;SDS011;5392;42.688;23.298;2022-11-06T03:32:56;9.07;;;6.50;;
10687;SDS011;5392;42.688;23.298;2022-11-06T03:35:35;10.60;;;7.20;;
10687;SDS011;5392;42.688;23.298;2022-11-06T03:40:49;11.98;;;6.13;;
10687;SDS011;5392;42.688;23.298;2022-11-06T03:43:20;10.73;;;6.30;;
10687;SDS011;5392;42.688;23.298;2022-11-06T03:45:51;9.25;;;5.75;;
10687;SDS011;5392;42.688;23.298;2022-11-06T03:51:17;12.55;;;6.10;;
10687;SDS011;5392;42.688;23.298;2022-11-06T03:53:48;7.10;;;5.55;;
10687;SDS011;5392;42.688;23.298;2022-11-06T03:56:27;6.97;;;6.28;;
10687;SDS011;5392;42.688;23.298;2022-11-06T03:59:02;8.05;;;5.90;;
10687;SDS011;5392;42.688;23.298;2022-11-06T04:01:33;12.30;;;5.85;;
10687;SDS011;5392;42.688;23.298;2022-11-06T04:04:07;6.93;;;6.00;;
10687;SDS011;5392;42.688;23.298;2022-11-06T04:06:44;9.75;;;6.13;;
10687;SDS011;5392;42.688;23.298;2022-11-06T04:09:16;9.10;;;5.82;;
10687;SDS011;5392;42.688;23.298;2022-11-06T04:12:04;9.25;;;5.93;;
10687;SDS011;5392;42.688;23.298;2022-11-06T04:14:52;8.40;;;5.93;;
10687;SDS011;5392;42.688;23.298;2022-11-06T04:17:21;8.63;;;6.20;;
10687;SDS011;5392;42.688;23.298;2022-11-06T04:19:52;9.00;;;5.90;;
10687;SDS011;5392;42.688;23.298;2022-11-06T04:30:34;11.45;;;6.03;;
10687;SDS011;5392;42.688;23.298;2022-11-06T04:33:22;10.55;;;6.25;;
10687;SDS011;5392;42.688;23.298;2022-11-06T04:41:26;11.45;;;5.68;;
10687;SDS011;5392;42.688;23.298;2022-11-06T04:46:51;9.13;;;6.43;;
10687;SDS011;5392;42.688;23.298;2022-11-06T04:49:23;10.15;;;4.82;;
10687;SDS011;5392;42.688;23.298;2022-11-06T04:51:52;12.10;;;7.53;;
10687;SDS011;5392;42.688;23.298;2022-11-06T04:54:19;10.65;;;7.57;;
10687;SDS011;5392;42.688;23.298;2022-11-06T04:56:46;11.52;;;7.72;;
10687;SDS011;5392;42.688;23.298;2022-11-06T04:59:13;9.70;;;5.68;;
10687;SDS011;5392;42.688;23.298;2022-11-06T05:01:41;5.88;;;5.03;;
10687;SDS011;5392;42.688;23.298;2022-11-06T05:04:10;11.40;;;7.47;;
10687;SDS011;5392;42.688;23.298;2022-11-06T05:06:37;15.55;;;9.02;;
10687;SDS011;5392;42.688;23.298;2022-11-06T05:09:03;12.50;;;7.93;;
10687;SDS011;5392;42.688;23.298;2022-11-06T05:11:30;4.75;;;4.03;;
10687;SDS011;5392;42.688;23.298;2022-11-06T05:13:57;14.10;;;8.55;;
10687;SDS011;5392;42.688;23.298;2022-11-06T05:16:23;10.32;;;8.15;;
10687;SDS011;5392;42.688;23.298;2022-11-06T05:18:50;9.27;;;6.40;;
10687;SDS011;5392;42.688;23.298;2022-11-06T05:21:17;11.90;;;9.60;;
10687;SDS011;5392;42.688;23.298;2022-11-06T05:24:02;15.82;;;9.13;;
10687;SDS011;5392;42.688;23.298;2022-11-06T05:26:29;9.38;;;7.93;;
10687;SDS011;5392;42.688;23.298;2022-11-06T05:28:56;12.23;;;6.82;;
10687;SDS011;5392;42.688;23.298;2022-11-06T05:31:22;12.70;;;9.15;;
10687;SDS011;5392;42.688;23.298;2022-11-06T05:33:50;10.48;;;8.77;;
10687;SDS011;5392;42.688;23.298;2022-11-06T05:36:16;10.50;;;8.13;;
10687;SDS011;5392;42.688;23.298;2022-11-06T05:38:43;14.55;;;8.98;;
10687;SDS011;5392;42.688;23.298;2022-11-06T05:41:09;12.90;;;7.85;;
10687;SDS011;5392;42.688;23.298;2022-11-06T05:43:36;13.48;;;9.15;;
10687;SDS011;5392;42.688;23.298;2022-11-06T05:46:03;13.07;;;9.23;;
10687;SDS011;5392;42.688;23.298;2022-11-06T05:48:30;16.10;;;10.20;;
10687;SDS011;5392;42.688;23.298;2022-11-06T05:51:00;14.40;;;9.05;;
10687;SDS011;5392;42.688;23.298;2022-11-06T05:53:29;15.60;;;9.68;;
10687;SDS011;5392;42.688;23.298;2022-11-06T05:55:56;10.73;;;8.32;;
10687;SDS011;5392;42.688;23.298;2022-11-06T05:58:23;10.68;;;9.07;;
10687;SDS011;5392;42.688;23.298;2022-11-06T06:00:50;9.80;;;7.88;;
10687;SDS011;5392;42.688;23.298;2022-11-06T06:03:17;11.52;;;7.80;;
10687;SDS011;5392;42.688;23.298;2022-11-06T06:05:46;12.85;;;8.05;;
10687;SDS011;5392;42.688;23.298;2022-11-06T06:08:13;8.60;;;6.88;;
10687;SDS011;5392;42.688;23.298;2022-11-06T06:10:41;10.27;;;7.55;;
10687;SDS011;5392;42.688;23.298;2022-11-06T06:13:08;7.20;;;6.47;;
10687;SDS011;5392;42.688;23.298;2022-11-06T06:15:39;11.77;;;7.93;;
10687;SDS011;5392;42.688;23.298;2022-11-06T06:18:07;11.75;;;8.13;;
10687;SDS011;5392;42.688;23.298;2022-11-06T06:20:34;10.32;;;8.20;;
10687;SDS011;5392;42.688;23.298;2022-11-06T06:23:02;10.65;;;7.60;;
10687;SDS011;5392;42.688;23.298;2022-11-06T06:25:29;10.10;;;7.05;;
10687;SDS011;5392;42.688;23.298;2022-11-06T06:27:56;11.45;;;7.80;;
10687;SDS011;5392;42.688;23.298;2022-11-06T06:30:23;10.50;;;9.38;;
10687;SDS011;5392;42.688;23.298;2022-11-06T06:32:51;10.32;;;9.27;;
10687;SDS011;5392;42.688;23.298;2022-11-06T06:35:18;12.98;;;8.82;;
10687;SDS011;5392;42.688;23.298;2022-11-06T06:37:54;16.00;;;10.00;;
10687;SDS011;5392;42.688;23.298;2022-11-06T06:40:21;15.27;;;10.52;;
10687;SDS011;5392;42.688;23.298;2022-11-06T06:42:48;10.45;;;9.38;;
10687;SDS011;5392;42.688;23.298;2022-11-06T06:45:15;11.68;;;9.57;;
10687;SDS011;5392;42.688;23.298;2022-11-06T06:47:42;12.15;;;8.93;;
10687;SDS011;5392;42.688;23.298;2022-11-06T06:50:09;16.80;;;10.30;;
10687;SDS011;5392;42.688;23.298;2022-11-06T06:52:35;16.80;;;10.73;;
10687;SDS011;5392;42.688;23.298;2022-11-06T06:55:04;11.38;;;9.90;;
10687;SDS011;5392;42.688;23.298;2022-11-06T06:57:30;11.18;;;9.30;;
10687;SDS011;5392;42.688;23.298;2022-11-06T06:59:57;13.43;;;10.98;;
10687;SDS011;5392;42.688;23.298;2022-11-06T07:02:24;13.35;;;8.82;;
10687;SDS011;5392;42.688;23.298;2022-11-06T07:04:50;10.75;;;8.57;;
10687;SDS011;5392;42.688;23.298;2022-11-06T07:07:17;12.60;;;8.35;;
10687;SDS011;5392;42.688;23.298;2022-11-06T07:09:44;15.07;;;10.13;;
10687;SDS011;5392;42.688;23.298;2022-11-06T07:12:10;14.20;;;9.48;;
10687;SDS011;5392;42.688;23.298;2022-11-06T07:14:37;12.02;;;9.57;;
10687;SDS011;5392;42.688;23.298;2022-11-06T07:17:04;7.78;;;6.30;;
10687;SDS011;5392;42.688;23.298;2022-11-06T07:19:30;12.18;;;8.18;;
10687;SDS011;5392;42.688;23.298;2022-11-06T07:21:57;13.27;;;9.40;;
10687;SDS011;5392;42.688;23.298;2022-11-06T07:24:23;10.68;;;7.78;;
10687;SDS011;5392;42.688;23.298;2022-11-06T07:26:50;15.90;;;8.90;;
10687;SDS011;5392;42.688;23.298;2022-11-06T07:29:17;12.55;;;8.95;;
10687;SDS011;5392;42.688;23.298;2022-11-06T07:31:43;12.80;;;10.32;;
10687;SDS011;5392;42.688;23.298;2022-11-06T07:34:10;11.90;;;9.02;;
10687;SDS011;5392;42.688;23.298;2022-11-06T07:36:36;14.45;;;9.43;;
10687;SDS011;5392;42.688;23.298;2022-11-06T07:39:03;14.15;;;10.20;;
10687;SDS011;5392;42.688;23.298;2022-11-06T07:41:30;13.82;;;10.50;;
10687;SDS011;5392;42.688;23.298;2022-11-06T07:43:56;13.35;;;11.02;;
10687;SDS011;5392;42.688;23.298;2022-11-06T07:46:23;11.63;;;8.95;;
10687;SDS011;5392;42.688;23.298;2022-11-06T07:48:50;12.63;;;9.60;;
10687;SDS011;5392;42.688;23.298;2022-11-06T07:51:16;13.57;;;10.07;;
10687;SDS011;5392;42.688;23.298;2022-11-06T07:53:43;10.68;;;9.68;;
10687;SDS011;5392;42.688;23.298;2022-11-06T07:56:10;16.33;;;11.05;;
10687;SDS011;5392;42.688;23.298;2022-11-06T07:58:36;12.73;;;11.23;;
10687;SDS011;5392;42.688;23.298;2022-11-06T08:01:04;13.63;;;10.95;;
10687;SDS011;5392;42.688;23.298;2022-11-06T08:03:31;14.18;;;10.90;;
10687;SDS011;5392;42.688;23.298;2022-11-06T08:06:01;16.10;;;10.63;;
10687;SDS011;5392;42.688;23.298;2022-11-06T08:08:30;19.13;;;11.50;;
10687;SDS011;5392;42.688;23.298;2022-11-06T08:11:00;15.15;;;11.20;;
10687;SDS011;5392;42.688;23.298;2022-11-06T08:13:28;15.18;;;10.10;;
10687;SDS011;5392;42.688;23.298;2022-11-06T08:15:55;11.23;;;9.98;;
10687;SDS011;5392;42.688;23.298;2022-11-06T08:18:21;15.70;;;11.10;;
10687;SDS011;5392;42.688;23.298;2022-11-06T08:20:51;13.77;;;9.50;;
10687;SDS011;5392;42.688;23.298;2022-11-06T08:23:18;12.13;;;10.55;;
10687;SDS011;5392;42.688;23.298;2022-11-06T08:25:45;15.85;;;12.23;;
10687;SDS011;5392;42.688;23.298;2022-11-06T08:28:11;18.27;;;12.15;;
10687;SDS011;5392;42.688;23.298;2022-11-06T08:30:38;18.80;;;11.93;;
10687;SDS011;5392;42.688;23.298;2022-11-06T08:33:06;15.05;;;11.38;;
10687;SDS011;5392;42.688;23.298;2022-11-06T08:35:33;20.73;;;14.32;;
10687;SDS011;5392;42.688;23.298;2022-11-06T08:38:00;19.95;;;11.88;;
10687;SDS011;5392;42.688;23.298;2022-11-06T08:40:27;19.20;;;14.02;;
10687;SDS011;5392;42.688;23.298;2022-11-06T08:43:00;17.70;;;13.75;;
10687;SDS011;5392;42.688;23.298;2022-11-06T08:45:28;20.65;;;15.43;;
10687;SDS011;5392;42.688;23.298;2022-11-06T08:47:59;25.67;;;15.68;;
10687;SDS011;5392;42.688;23.298;2022-11-06T08:50:27;25.02;;;18.42;;
10687;SDS011;5392;42.688;23.298;2022-11-06T08:52:55;23.55;;;17.25;;
10687;SDS011;5392;42.688;23.298;2022-11-06T08:55:23;22.88;;;18.33;;
10687;SDS011;5392;42.688;23.298;2022-11-06T08:57:49;23.25;;;15.93;;
10687;SDS011;5392;42.688;23.298;2022-11-06T09:00:16;21.98;;;18.42;;
10687;SDS011;5392;42.688;23.298;2022-11-06T09:02:43;25.73;;;19.30;;
10687;SDS011;5392;42.688;23.298;2022-11-06T09:05:09;25.55;;;19.52;;
10687;SDS011;5392;42.688;23.298;2022-11-06T09:07:36;21.45;;;18.80;;
10687;SDS011;5392;42.688;23.298;2022-11-06T09:10:03;26.40;;;18.27;;
10687;SDS011;5392;42.688;23.298;2022-11-06T09:12:30;23.35;;;19.55;;
10687;SDS011;5392;42.688;23.298;2022-11-06T09:14:56;22.70;;;19.02;;
10687;SDS011;5392;42.688;23.298;2022-11-06T09:17:23;20.85;;;18.20;;
10687;SDS011;5392;42.688;23.298;2022-11-06T09:19:50;20.17;;;16.88;;
10687;SDS011;5392;42.688;23.298;2022-11-06T09:22:17;19.00;;;15.93;;
10687;SDS011;5392;42.688;23.298;2022-11-06T09:24:44;16.83;;;14.20;;
10687;SDS011;5392;42.688;23.298;2022-11-06T09:27:30;19.55;;;14.68;;
10687;SDS011;5392;42.688;23.298;2022-11-06T09:29:57;17.60;;;15.90;;
10687;SDS011;5392;42.688;23.298;2022-11-06T09:32:23;19.17;;;14.27;;
10687;SDS011;5392;42.688;23.298;2022-11-06T09:34:50;16.88;;;14.45;;
10687;SDS011;5392;42.688;23.298;2022-11-06T09:37:17;16.92;;;13.45;;
10687;SDS011;5392;42.688;23.298;2022-11-06T09:39:43;17.08;;;12.98;;
10687;SDS011;5392;42.688;23.298;2022-11-06T09:42:27;20.83;;;15.25;;
10687;SDS011;5392;42.688;23.298;2022-11-06T09:45:13;14.80;;;13.05;;
10687;SDS011;5392;42.688;23.298;2022-11-06T09:48:34;15.95;;;13.32;;
10687;SDS011;5392;42.688;23.298;2022-11-06T09:50:36;13.45;;;12.05;;
10687;SDS011;5392;42.688;23.298;2022-11-06T09:53:13;14.82;;;13.30;;
10687;SDS011;5392;42.688;23.298;2022-11-06T09:55:45;15.55;;;14.05;;
10687;SDS011;5392;42.688;23.298;2022-11-06T09:58:24;17.80;;;13.80;;
10687;SDS011;5392;42.688;23.298;2022-11-06T10:00:55;13.57;;;11.95;;
10687;SDS011;5392;42.688;23.298;2022-11-06T10:03:29;14.15;;;12.85;;
10687;SDS011;5392;42.688;23.298;2022-11-06T10:06:05;12.43;;;11.27;;
10687;SDS011;5392;42.688;23.298;2022-11-06T10:08:31;14.30;;;11.00;;
10687;SDS011;5392;42.688;23.298;2022-11-06T10:16:52;10.50;;;9.50;;
10687;SDS011;5392;42.688;23.298;2022-11-06T10:19:34;10.45;;;9.45;;
10687;SDS011;5392;42.688;23.298;2022-11-06T10:25:19;10.80;;;9.85;;
10687;SDS011;5392;42.688;23.298;2022-11-06T10:30:26;9.55;;;8.85;;
10687;SDS011;5392;42.688;23.298;2022-11-06T10:33:08;10.23;;;9.23;;
10687;SDS011;5392;42.688;23.298;2022-11-06T10:35:39;9.95;;;8.95;;
10687;SDS011;5392;42.688;23.298;2022-11-06T10:38:12;9.80;;;8.98;;
10687;SDS011;5392;42.688;23.298;2022-11-06T10:40:45;9.63;;;8.82;;
10687;SDS011;5392;42.688;23.298;2022-11-06T10:46:11;9.25;;;8.55;;
10687;SDS011;5392;42.688;23.298;2022-11-06T10:48:50;9.07;;;8.30;;
10687;SDS011;5392;42.688;23.298;2022-11-06T10:59:35;4.20;;;3.90;;
10687;SDS011;5392;42.688;23.298;2022-11-06T11:02:02;4.57;;;4.13;;
10687;SDS011;5392;42.688;23.298;2022-11-06T11:04:30;5.55;;;5.15;;
10687;SDS011;5392;42.688;23.298;2022-11-06T11:07:01;6.03;;;5.50;;
10687;SDS011;5392;42.688;23.298;2022-11-06T11:09:45;7.28;;;6.68;;
10687;SDS011;5392;42.688;23.298;2022-11-06T11:12:18;6.82;;;6.28;;
10687;SDS011;5392;42.688;23.298;2022-11-06T11:15:09;6.15;;;5.75;;
10687;SDS011;5392;42.688;23.298;2022-11-06T11:17:37;6.20;;;5.68;;
10687;SDS011;5392;42.688;23.298;2022-11-06T11:20:27;6.53;;;5.93;;
10687;SDS011;5392;42.688;23.298;2022-11-06T11:25:49;4.15;;;3.78;;
10687;SDS011;5392;42.688;23.298;2022-11-06T11:28:29;5.13;;;4.82;;
10687;SDS011;5392;42.688;23.298;2022-11-06T11:31:08;7.20;;;6.70;;
10687;SDS011;5392;42.688;23.298;2022-11-06T11:33:38;6.05;;;5.55;;
10687;SDS011;5392;42.688;23.298;2022-11-06T11:36:07;8.75;;;8.15;;
10687;SDS011;5392;42.688;23.298;2022-11-06T11:38:38;7.93;;;7.43;;
10687;SDS011;5392;42.688;23.298;2022-11-06T11:41:28;8.30;;;7.60;;
10687;SDS011;5392;42.688;23.298;2022-11-06T11:44:13;7.72;;;7.13;;
10687;SDS011;5392;42.688;23.298;2022-11-06T11:46:49;9.50;;;8.27;;
10687;SDS011;5392;42.688;23.298;2022-11-06T11:49:30;11.20;;;10.20;;
10687;SDS011;5392;42.688;23.298;2022-11-06T11:51:59;11.57;;;10.48;;
10687;SDS011;5392;42.688;23.298;2022-11-06T11:54:32;11.68;;;10.45;;
10687;SDS011;5392;42.688;23.298;2022-11-06T11:57:01;7.35;;;6.70;;
10687;SDS011;5392;42.688;23.298;2022-11-06T11:59:43;11.48;;;10.27;;
10687;SDS011;5392;42.688;23.298;2022-11-06T12:02:24;8.98;;;7.57;;
10687;SDS011;5392;42.688;23.298;2022-11-06T12:04:59;9.98;;;9.00;;
10687;SDS011;5392;42.688;23.298;2022-11-06T12:07:37;5.82;;;5.32;;
10687;SDS011;5392;42.688;23.298;2022-11-06T12:12:47;8.60;;;6.18;;
10687;SDS011;5392;42.688;23.298;2022-11-06T12:17:54;8.30;;;7.22;;
10687;SDS011;5392;42.688;23.298;2022-11-06T12:20:44;7.80;;;6.50;;
10687;SDS011;5392;42.688;23.298;2022-11-06T12:23:25;6.45;;;5.90;;
10687;SDS011;5392;42.688;23.298;2022-11-06T12:26:04;8.35;;;6.07;;
10687;SDS011;5392;42.688;23.298;2022-11-06T12:28:53;5.32;;;4.97;;
10687;SDS011;5392;42.688;23.298;2022-11-06T12:34:06;6.15;;;5.65;;
10687;SDS011;5392;42.688;23.298;2022-11-06T12:36:44;4.93;;;4.63;;
10687;SDS011;5392;42.688;23.298;2022-11-06T12:39:19;4.20;;;3.90;;
10687;SDS011;5392;42.688;23.298;2022-11-06T12:41:52;4.90;;;4.55;;
10687;SDS011;5392;42.688;23.298;2022-11-06T12:44:21;4.93;;;4.53;;
10687;SDS011;5392;42.688;23.298;2022-11-06T12:55:50;4.90;;;4.55;;
10687;SDS011;5392;42.688;23.298;2022-11-06T12:58:45;5.32;;;4.93;;
10687;SDS011;5392;42.688;23.298;2022-11-06T13:04:40;5.50;;;5.00;;
10687;SDS011;5392;42.688;23.298;2022-11-06T13:07:22;5.05;;;4.55;;
10687;SDS011;5392;42.688;23.298;2022-11-06T13:10:02;10.15;;;4.43;;
10687;SDS011;5392;42.688;23.298;2022-11-06T13:21:16;5.18;;;4.63;;
10687;SDS011;5392;42.688;23.298;2022-11-06T13:23:57;4.53;;;4.13;;
10687;SDS011;5392;42.688;23.298;2022-11-06T13:26:32;5.18;;;4.80;;
10687;SDS011;5392;42.688;23.298;2022-11-06T13:29:11;4.97;;;4.50;;
10687;SDS011;5392;42.688;23.298;2022-11-06T13:31:42;4.47;;;4.18;;
10687;SDS011;5392;42.688;23.298;2022-11-06T13:34:35;5.53;;;5.00;;
10687;SDS011;5392;42.688;23.298;2022-11-06T13:37:39;5.20;;;4.70;;
10687;SDS011;5392;42.688;23.298;2022-11-06T13:40:17;5.20;;;4.80;;
10687;SDS011;5392;42.688;23.298;2022-11-06T13:42:47;3.25;;;3.00;;
10687;SDS011;5392;42.688;23.298;2022-11-06T13:45:19;4.30;;;3.97;;
10687;SDS011;5392;42.688;23.298;2022-11-06T13:48:08;4.70;;;4.40;;
10687;SDS011;5392;42.688;23.298;2022-11-06T13:56:08;5.47;;;4.90;;
10687;SDS011;5392;42.688;23.298;2022-11-06T13:58:57;4.65;;;4.22;;
10687;SDS011;5392;42.688;23.298;2022-11-06T14:07:35;4.10;;;3.90;;
10687;SDS011;5392;42.688;23.298;2022-11-06T14:10:04;3.60;;;3.40;;
10687;SDS011;5392;42.688;23.298;2022-11-06T14:12:31;3.60;;;3.10;;
10687;SDS011;5392;42.688;23.298;2022-11-06T14:15:22;3.58;;;3.30;;
10687;SDS011;5392;42.688;23.298;2022-11-06T14:17:55;4.32;;;3.08;;
10687;SDS011;5392;42.688;23.298;2022-11-06T14:20:34;3.20;;;2.92;;
10687;SDS011;5392;42.688;23.298;2022-11-06T14:26:01;4.47;;;4.07;;
10687;SDS011;5392;42.688;23.298;2022-11-06T14:28:38;4.90;;;4.55;;
10687;SDS011;5392;42.688;23.298;2022-11-06T14:31:07;8.32;;;4.32;;
10687;SDS011;5392;42.688;23.298;2022-11-06T14:38:39;5.40;;;3.00;;
10687;SDS011;5392;42.688;23.298;2022-11-06T14:43:59;3.20;;;2.78;;
10687;SDS011;5392;42.688;23.298;2022-11-06T14:46:31;2.15;;;2.08;;
10687;SDS011;5392;42.688;23.298;2022-11-06T14:49:08;3.05;;;1.65;;
10687;SDS011;5392;42.688;23.298;2022-11-06T14:51:43;2.35;;;2.25;;
10687;SDS011;5392;42.688;23.298;2022-11-06T14:54:32;1.35;;;1.27;;
10687;SDS011;5392;42.688;23.298;2022-11-06T14:57:02;3.22;;;1.70;;
10687;SDS011;5392;42.688;23.298;2022-11-06T14:59:31;2.63;;;1.27;;
10687;SDS011;5392;42.688;23.298;2022-11-06T15:04:52;1.80;;;1.70;;
10687;SDS011;5392;42.688;23.298;2022-11-06T15:07:33;2.03;;;0.98;;
10687;SDS011;5392;42.688;23.298;2022-11-06T15:15:44;2.60;;;1.90;;
10687;SDS011;5392;42.688;23.298;2022-11-06T15:18:16;2.47;;;2.20;;
10687;SDS011;5392;42.688;23.298;2022-11-06T15:20:55;1.73;;;1.27;;
10687;SDS011;5392;42.688;23.298;2022-11-06T15:26:01;2.17;;;1.98;;
10687;SDS011;5392;42.688;23.298;2022-11-06T15:28:31;3.08;;;1.50;;
10687;SDS011;5392;42.688;23.298;2022-11-06T15:31:13;2.60;;;1.60;;
10687;SDS011;5392;42.688;23.298;2022-11-06T15:39:38;2.40;;;1.67;;
10687;SDS011;5392;42.688;23.298;2022-11-06T15:42:07;2.13;;;2.03;;
10687;SDS011;5392;42.688;23.298;2022-11-06T15:44:39;2.00;;;1.90;;
10687;SDS011;5392;42.688;23.298;2022-11-06T15:47:28;3.97;;;2.30;;
10687;SDS011;5392;42.688;23.298;2022-11-06T15:50:04;2.20;;;1.55;;
10687;SDS011;5392;42.688;23.298;2022-11-06T15:52:38;2.25;;;1.42;;
10687;SDS011;5392;42.688;23.298;2022-11-06T15:55:05;2.00;;;1.70;;
10687;SDS011;5392;42.688;23.298;2022-11-06T15:57:37;2.45;;;1.80;;
10687;SDS011;5392;42.688;23.298;2022-11-06T16:00:17;1.58;;;1.48;;
10687;SDS011;5392;42.688;23.298;2022-11-06T16:02:51;2.47;;;1.92;;
10687;SDS011;5392;42.688;23.298;2022-11-06T16:05:24;2.28;;;2.17;;
10687;SDS011;5392;42.688;23.298;2022-11-06T16:07:53;2.35;;;2.15;;
10687;SDS011;5392;42.688;23.298;2022-11-06T16:10:22;2.30;;;2.20;;
10687;SDS011;5392;42.688;23.298;2022-11-06T16:12:50;1.60;;;1.60;;
10687;SDS011;5392;42.688;23.298;2022-11-06T16:20:44;4.72;;;2.38;;
10687;SDS011;5392;42.688;23.298;2022-11-06T16:23:15;2.85;;;1.98;;
10687;SDS011;5392;42.688;23.298;2022-11-06T16:25:45;3.83;;;2.90;;
10687;SDS011;5392;42.688;23.298;2022-11-06T16:28:21;3.72;;;2.92;;
10687;SDS011;5392;42.688;23.298;2022-11-06T16:30:49;4.00;;;3.80;;
10687;SDS011;5392;42.688;23.298;2022-11-06T16:33:17;5.43;;;3.80;;
10687;SDS011;5392;42.688;23.298;2022-11-06T16:35:49;5.95;;;4.10;;
10687;SDS011;5392;42.688;23.298;2022-11-06T16:38:27;4.95;;;4.53;;
10687;SDS011;5392;42.688;23.298;2022-11-06T16:41:07;5.93;;;4.78;;
10687;SDS011;5392;42.688;23.298;2022-11-06T16:43:34;5.50;;;4.93;;
10687;SDS011;5392;42.688;23.298;2022-11-06T16:46:02;6.25;;;5.55;;
10687;SDS011;5392;42.688;23.298;2022-11-06T16:48:49;6.25;;;5.72;;
10687;SDS011;5392;42.688;23.298;2022-11-06T16:51:29;11.00;;;9.80;;
10687;SDS011;5392;42.688;23.298;2022-11-06T16:53:58;14.20;;;11.68;;
10687;SDS011;5392;42.688;23.298;2022-11-06T16:56:27;14.45;;;12.48;;
10687;SDS011;5392;42.688;23.298;2022-11-06T16:59:04;13.55;;;11.77;;
10687;SDS011;5392;42.688;23.298;2022-11-06T17:01:43;14.68;;;11.45;;
10687;SDS011;5392;42.688;23.298;2022-11-06T17:04:19;11.77;;;10.55;;
10687;SDS011;5392;42.688;23.298;2022-11-06T17:06:48;13.68;;;10.98;;
10687;SDS011;5392;42.688;23.298;2022-11-06T17:11:53;17.85;;;13.27;;
10687;SDS011;5392;42.688;23.298;2022-11-06T17:14:21;14.80;;;13.00;;
10687;SDS011;5392;42.688;23.298;2022-11-06T17:16:50;15.15;;;12.65;;
10687;SDS011;5392;42.688;23.298;2022-11-06T17:19:19;15.18;;;11.65;;
10687;SDS011;5392;42.688;23.298;2022-11-06T17:21:47;10.43;;;9.00;;
10687;SDS011;5392;42.688;23.298;2022-11-06T17:24:14;12.73;;;9.13;;
10687;SDS011;5392;42.688;23.298;2022-11-06T17:27:01;10.63;;;9.25;;
10687;SDS011;5392;42.688;23.298;2022-11-06T17:29:28;13.45;;;10.10;;
10687;SDS011;5392;42.688;23.298;2022-11-06T17:31:55;12.75;;;9.30;;
10687;SDS011;5392;42.688;23.298;2022-11-06T17:34:21;10.70;;;9.60;;
10687;SDS011;5392;42.688;23.298;2022-11-06T17:36:48;10.77;;;9.77;;